Главная страница
METAR-TAF:

METAR-TAF

Аэропорты :

Флорешты, Молдавия

широта: 47-51-45N, долгота: 028-12-45E, высота над уровнем моря: 101 м

Текущие метеонаблюдения

Эта сводка был подготовлена 15 часа и 50 минут назад, в 10:00 UTC
Ветер 18 Узел от северный с порывами до 28 Узел
Температура 16°C
Влажность 42%
Давление 1021 hPa
Видимость 10 км и более
Отдельные облака на высоте 3600 фута

METAR: LUBM 201000Z 01018G28KT 9999 SCT036 16/03 Q1021 R25/CLRD65

Время: 04:50 (01:50 UTC)

Прогноз

Эта сводка был подготовлена 17 часа и 30 минут назад, в 08:20 UTC
Прогноз действительный с 20-го 09 UTC до 20-го 18 UTC
Ветер 18 Узел от северно-северо-западный
Видимость 10 км и более
Отдельные облака на высоте 3000 фута
временами
С 20-го 09 UTC до 20-го 15 UTC
Ветер 20 Узел от северно-северо-западный с порывами до 32 Узел

TAF: LUBM 200820Z 2009/2018 34018KT 9999 SCT030 TEMPO 2009/2015 34020G32KT

Метеонаблюдения и прогнозы для более 4000 аэропортов (сводки METAR и TAF).

Имеющиеся станции представлены на карте желтыми и красными точками.

Чтобы увидеть название станции, наведите на нее мышь.

Затем щелкните, чтобы увидеть метеонаблюдения и метеопрогнозы.

Управление картой: чтобы увеличить масштаб, щелкните зеленые кнопки с черным крестиком; чтобы уменьшить масштаб, щелкните зеленую кнопку с тире; для просмотра соседних карт щелкайте зеленые стрелки.


METAR-TAF: